createdAt,value
2019-01-31T00:01:08.939Z,1.40
2019-01-31T00:04:53.369Z,1.57
2019-01-31T00:08:05.970Z,1.37
2019-01-31T00:11:03.119Z,1.80
2019-01-31T00:14:37.221Z,1.60
2019-01-31T00:18:03.009Z,1.60
2019-01-31T00:21:26.564Z,1.70
2019-01-31T00:24:51.552Z,1.40
2019-01-31T00:28:11.076Z,1.53
2019-01-31T00:31:45.927Z,1.40
2019-01-31T00:35:12.705Z,1.50
2019-01-31T00:38:17.125Z,1.50
2019-01-31T00:41:44.335Z,1.20
2019-01-31T00:44:57.928Z,1.57
2019-01-31T00:48:29.671Z,1.77
2019-01-31T00:51:40.248Z,2.00
2019-01-31T00:54:54.398Z,1.60
2019-01-31T00:58:06.344Z,1.50
2019-01-31T01:01:18.884Z,1.20
2019-01-31T01:05:02.038Z,1.40
2019-01-31T01:08:16.941Z,1.30
2019-01-31T01:11:35.450Z,1.30
2019-01-31T01:14:54.371Z,1.20
2019-01-31T01:18:23.205Z,1.17
2019-01-31T01:21:48.401Z,1.20
2019-01-31T01:25:06.551Z,1.30
2019-01-31T01:28:25.693Z,1.17
2019-01-31T01:31:37.668Z,1.30
2019-01-31T01:35:04.011Z,1.30
2019-01-31T01:38:32.585Z,1.20
2019-01-31T01:41:56.826Z,1.30
2019-01-31T01:45:34.335Z,1.10
2019-01-31T01:48:43.795Z,1.07
2019-01-31T01:52:03.303Z,1.10
2019-01-31T01:55:19.306Z,1.30
2019-01-31T01:58:18.212Z,1.13
2019-01-31T02:01:43.618Z,1.10
2019-01-31T02:04:46.372Z,1.00
2019-01-31T02:07:48.085Z,1.13
2019-01-31T02:11:05.193Z,1.00
2019-01-31T02:14:22.624Z,1.17
2019-01-31T02:17:36.528Z,1.27
2019-01-31T02:21:20.495Z,1.17
2019-01-31T02:24:15.743Z,0.90
2019-01-31T02:27:44.757Z,1.03
2019-01-31T02:30:43.811Z,1.00
2019-01-31T02:34:25.312Z,1.00
2019-01-31T02:38:03.342Z,1.00
2019-01-31T02:41:28.543Z,1.00
2019-01-31T02:44:56.204Z,1.10
2019-01-31T02:47:58.637Z,1.23
2019-01-31T02:51:36.497Z,1.10
2019-01-31T02:54:50.697Z,1.20
2019-01-31T02:58:12.343Z,1.27
2019-01-31T03:01:27.293Z,1.00
2019-01-31T03:04:53.848Z,1.60
2019-01-31T03:08:15.299Z,1.67
2019-01-31T03:11:44.175Z,1.60
2019-01-31T03:14:51.978Z,1.53
2019-01-31T03:18:16.918Z,1.60
2019-01-31T03:21:15.719Z,1.93
2019-01-31T03:24:44.177Z,2.03
2019-01-31T03:27:54.247Z,2.10
2019-01-31T03:31:22.472Z,2.03
2019-01-31T03:34:45.392Z,1.90
2019-01-31T03:38:17.391Z,1.77
2019-01-31T03:41:41.379Z,1.90
2019-01-31T03:44:54.675Z,1.60
2019-01-31T03:48:13.470Z,1.60
2019-01-31T03:51:12.896Z,1.20
2019-01-31T03:54:44.603Z,1.30
2019-01-31T03:58:34.763Z,1.07
2019-01-31T04:01:46.885Z,1.23
2019-01-31T04:04:42.841Z,1.40
2019-01-31T04:07:30.797Z,1.67
2019-01-31T04:10:19.374Z,1.10
2019-01-31T04:13:07.242Z,0.90
2019-01-31T04:15:55.279Z,1.00
2019-01-31T04:18:43.375Z,1.03
2019-01-31T04:21:30.992Z,1.37
2019-01-31T04:24:18.558Z,1.47
2019-01-31T04:27:06.833Z,1.20
2019-01-31T04:29:54.760Z,1.50
2019-01-31T04:32:42.971Z,1.27
2019-01-31T04:35:30.833Z,1.40
2019-01-31T04:38:19.993Z,1.20
2019-01-31T04:41:08.209Z,1.37
2019-01-31T04:43:55.725Z,1.20
2019-01-31T04:46:43.806Z,0.90
2019-01-31T04:49:31.666Z,1.00
2019-01-31T04:52:19.378Z,1.00
2019-01-31T04:55:07.755Z,1.13
2019-01-31T04:57:57.319Z,1.03
2019-01-31T05:00:45.592Z,1.00
2019-01-31T05:03:33.539Z,1.50
2019-01-31T05:06:21.535Z,2.20
2019-01-31T05:09:09.611Z,1.47
2019-01-31T05:11:57.620Z,1.73
2019-01-31T05:14:45.605Z,1.77
2019-01-31T05:17:33.603Z,1.50
2019-01-31T05:20:21.295Z,1.60
2019-01-31T05:23:09.874Z,1.23
2019-01-31T05:25:58.132Z,1.33
2019-01-31T05:28:46.327Z,1.10
2019-01-31T05:31:34.508Z,1.20
2019-01-31T05:34:22.694Z,0.80
2019-01-31T05:37:10.589Z,0.67
2019-01-31T05:39:59.022Z,1.27
2019-01-31T05:42:46.654Z,1.23
2019-01-31T05:45:34.553Z,1.10
2019-01-31T05:48:22.637Z,1.10
2019-01-31T05:51:11.097Z,1.40
2019-01-31T05:53:59.258Z,1.00
2019-01-31T05:56:46.904Z,1.30
2019-01-31T05:59:35.066Z,1.30
2019-01-31T06:02:23.198Z,0.97
2019-01-31T06:05:12.078Z,1.00
2019-01-31T06:08:00.339Z,1.10
2019-01-31T06:10:48.530Z,1.07
2019-01-31T06:13:36.789Z,1.20
2019-01-31T06:16:24.748Z,0.87
2019-01-31T06:19:12.736Z,1.07
2019-01-31T06:22:00.617Z,1.07
2019-01-31T06:24:48.852Z,0.90
2019-01-31T06:27:36.826Z,1.00
2019-01-31T06:30:24.514Z,1.10
2019-01-31T06:33:12.669Z,1.00
2019-01-31T06:36:00.987Z,0.90
2019-01-31T06:38:49.094Z,1.10
2019-01-31T06:41:37.141Z,1.10
2019-01-31T06:44:25.074Z,1.00
2019-01-31T06:47:13.210Z,0.90
2019-01-31T06:50:01.440Z,1.10
2019-01-31T06:52:50.000Z,1.00
2019-01-31T06:55:37.559Z,1.10
2019-01-31T06:58:25.565Z,1.10
2019-01-31T07:01:13.702Z,1.13
2019-01-31T07:04:02.015Z,1.10
2019-01-31T07:06:50.388Z,1.10
2019-01-31T07:09:38.240Z,1.30
2019-01-31T07:12:26.282Z,1.30
2019-01-31T07:15:14.658Z,1.50
2019-01-31T07:18:02.450Z,1.20
2019-01-31T07:20:50.731Z,1.10
2019-01-31T07:23:38.719Z,1.37
2019-01-31T07:26:26.817Z,1.33
2019-01-31T07:29:14.652Z,1.17
2019-01-31T07:32:03.707Z,1.30
2019-01-31T07:34:51.815Z,1.03
2019-01-31T07:37:39.732Z,1.10
2019-01-31T07:40:27.849Z,1.20
2019-01-31T07:43:16.050Z,1.27
2019-01-31T07:46:03.932Z,1.03
2019-01-31T07:48:52.347Z,0.97
2019-01-31T07:51:40.558Z,1.00
2019-01-31T07:54:28.349Z,1.07
2019-01-31T07:57:16.210Z,0.90
2019-01-31T08:00:05.191Z,0.90
2019-01-31T08:02:53.399Z,1.00
2019-01-31T08:05:41.572Z,0.83
2019-01-31T08:08:29.438Z,1.00
2019-01-31T08:11:17.505Z,0.90
2019-01-31T08:14:05.903Z,0.97
2019-01-31T08:16:53.479Z,0.70
2019-01-31T08:19:41.018Z,0.90
2019-01-31T08:22:29.230Z,0.90
2019-01-31T08:25:19.413Z,0.70
2019-01-31T08:28:07.444Z,0.90
2019-01-31T08:30:54.967Z,0.90
2019-01-31T08:33:42.867Z,0.87
2019-01-31T08:36:30.940Z,0.90
2019-01-31T08:39:18.453Z,0.90
2019-01-31T08:42:06.340Z,1.00
2019-01-31T08:44:54.003Z,1.00
2019-01-31T08:47:42.166Z,0.93
2019-01-31T08:50:30.653Z,0.90
2019-01-31T08:53:18.497Z,0.93
2019-01-31T08:56:06.446Z,1.10
2019-01-31T08:58:54.436Z,1.17
2019-01-31T09:01:42.606Z,1.80
2019-01-31T09:04:30.131Z,1.13
2019-01-31T09:07:18.407Z,1.23
2019-01-31T09:10:08.887Z,1.33
2019-01-31T09:12:57.384Z,1.60
2019-01-31T09:15:45.329Z,1.10
2019-01-31T09:18:33.166Z,1.03
2019-01-31T09:21:46.283Z,0.90
2019-01-31T09:25:13.813Z,1.00
2019-01-31T09:28:22.700Z,1.17
2019-01-31T09:32:09.793Z,0.87
2019-01-31T09:35:11.037Z,0.87
2019-01-31T09:38:34.948Z,1.00
2019-01-31T09:42:02.695Z,1.10
2019-01-31T09:45:14.331Z,1.07
2019-01-31T09:48:58.631Z,1.03
2019-01-31T09:52:16.592Z,1.10
2019-01-31T09:55:38.883Z,1.30
2019-01-31T09:59:14.003Z,1.13
2019-01-31T10:02:42.463Z,1.03
2019-01-31T10:06:13.959Z,1.30
2019-01-31T10:09:40.153Z,1.23
2019-01-31T10:12:51.756Z,1.07
2019-01-31T10:16:13.809Z,1.23
2019-01-31T10:19:49.696Z,1.30
2019-01-31T10:23:08.793Z,1.20
2019-01-31T10:26:42.575Z,1.20
2019-01-31T10:29:57.106Z,1.20
2019-01-31T10:33:27.905Z,1.70
2019-01-31T10:36:30.204Z,1.60
2019-01-31T10:40:04.555Z,1.33
2019-01-31T10:43:27.438Z,1.20
2019-01-31T10:46:33.366Z,1.10
2019-01-31T10:50:05.578Z,1.10
2019-01-31T10:53:19.299Z,1.20
2019-01-31T10:56:44.438Z,1.30
2019-01-31T11:00:16.111Z,1.00
2019-01-31T11:03:35.973Z,1.00
2019-01-31T11:07:04.218Z,1.20
2019-01-31T11:10:32.245Z,1.30
2019-01-31T11:14:00.403Z,1.17
2019-01-31T11:17:35.532Z,1.07
2019-01-31T11:21:01.898Z,1.00
2019-01-31T11:24:29.760Z,1.30
2019-01-31T11:27:40.752Z,1.20
2019-01-31T11:31:18.214Z,1.40
2019-01-31T11:34:35.305Z,1.37
2019-01-31T11:37:38.594Z,1.27
2019-01-31T11:41:12.718Z,1.30
2019-01-31T11:44:38.029Z,1.30
2019-01-31T11:48:00.393Z,1.47
2019-01-31T11:51:31.326Z,1.23
2019-01-31T11:54:55.325Z,1.23
2019-01-31T11:58:35.502Z,1.33
2019-01-31T12:01:23.454Z,1.00
2019-01-31T12:04:14.148Z,1.20
2019-01-31T12:07:01.906Z,1.30
2019-01-31T12:09:50.037Z,1.43
2019-01-31T12:12:38.619Z,1.20
2019-01-31T12:15:27.302Z,1.20
2019-01-31T12:18:15.362Z,1.20
2019-01-31T12:21:03.317Z,1.20
2019-01-31T12:23:51.678Z,0.93
2019-01-31T12:26:39.703Z,1.30
2019-01-31T12:29:28.231Z,1.20
2019-01-31T12:32:16.027Z,1.70
2019-01-31T12:35:04.138Z,2.00
2019-01-31T12:37:52.239Z,1.27
2019-01-31T12:40:40.165Z,1.43
2019-01-31T12:43:35.302Z,2.17
2019-01-31T12:46:18.187Z,1.33
2019-01-31T12:49:06.143Z,1.30
2019-01-31T12:51:54.580Z,1.53
2019-01-31T12:54:42.560Z,1.20
2019-01-31T12:57:30.611Z,1.50
2019-01-31T13:00:23.989Z,1.20
2019-01-31T13:03:12.228Z,1.13
2019-01-31T13:06:00.392Z,1.40
2019-01-31T13:08:48.254Z,1.43
2019-01-31T13:11:35.988Z,1.37
2019-01-31T13:14:24.002Z,1.43
2019-01-31T13:17:11.704Z,1.40
2019-01-31T13:19:59.843Z,1.50
2019-01-31T13:22:48.475Z,1.43
2019-01-31T13:25:36.470Z,1.97
2019-01-31T13:28:24.326Z,1.03
2019-01-31T13:31:11.916Z,1.40
2019-01-31T13:33:59.779Z,1.40
2019-01-31T13:36:48.048Z,1.40
2019-01-31T13:39:35.885Z,1.43
2019-01-31T13:42:23.504Z,1.20
2019-01-31T13:45:12.375Z,1.60
2019-01-31T13:48:03.261Z,1.40
2019-01-31T13:50:51.189Z,1.30
2019-01-31T13:53:39.741Z,1.40
2019-01-31T13:56:27.802Z,1.37
2019-01-31T13:59:15.817Z,1.00
2019-01-31T14:02:03.662Z,1.30
2019-01-31T14:04:51.475Z,1.40
2019-01-31T14:07:39.535Z,1.27
2019-01-31T14:10:27.612Z,1.50
2019-01-31T14:13:15.459Z,1.30
2019-01-31T14:16:03.008Z,0.90
2019-01-31T14:18:53.373Z,1.00
2019-01-31T14:21:40.558Z,1.17
2019-01-31T14:24:28.501Z,1.00
2019-01-31T14:27:16.500Z,0.83
2019-01-31T14:30:06.443Z,0.70
2019-01-31T14:32:54.514Z,0.60
2019-01-31T14:35:42.589Z,0.50
2019-01-31T14:38:30.803Z,0.70
2019-01-31T14:41:18.638Z,0.70
2019-01-31T14:44:06.870Z,0.87
2019-01-31T14:46:54.826Z,0.80
2019-01-31T14:49:42.755Z,1.30
2019-01-31T14:52:30.591Z,0.83
2019-01-31T14:55:18.737Z,0.87
2019-01-31T14:58:08.722Z,0.90
2019-01-31T15:00:56.905Z,0.90
2019-01-31T15:03:44.907Z,0.73
2019-01-31T15:06:33.111Z,1.03
2019-01-31T15:09:21.239Z,1.00
2019-01-31T15:12:09.095Z,1.60
2019-01-31T15:14:57.530Z,1.47
2019-01-31T15:17:45.311Z,1.27
2019-01-31T15:20:38.342Z,1.60
2019-01-31T15:23:25.126Z,1.40
2019-01-31T15:26:13.014Z,1.40
2019-01-31T15:29:03.815Z,1.30
2019-01-31T15:31:50.535Z,1.50
2019-01-31T15:34:38.283Z,1.40
2019-01-31T15:37:26.219Z,1.70
2019-01-31T15:40:17.308Z,1.70
2019-01-31T15:43:06.035Z,1.43
2019-01-31T15:45:54.317Z,1.40
2019-01-31T15:48:42.088Z,1.43
2019-01-31T15:51:30.360Z,1.50
2019-01-31T15:54:18.356Z,2.67
2019-01-31T15:57:16.385Z,2.87
2019-01-31T15:59:56.525Z,1.90
2019-01-31T16:02:44.326Z,2.30
2019-01-31T16:05:32.194Z,2.50
2019-01-31T16:08:20.325Z,2.47
2019-01-31T16:11:08.114Z,2.80
2019-01-31T16:13:56.343Z,3.10
2019-01-31T16:16:44.397Z,3.50
2019-01-31T16:19:32.521Z,3.00
2019-01-31T16:22:20.531Z,2.60
2019-01-31T16:25:08.282Z,2.77
2019-01-31T16:27:56.309Z,2.47
2019-01-31T16:30:44.802Z,3.00
2019-01-31T16:33:32.808Z,2.53
2019-01-31T16:36:20.718Z,2.70
2019-01-31T16:39:09.754Z,2.70
2019-01-31T16:41:57.320Z,4.37
2019-01-31T16:44:45.207Z,7.07
2019-01-31T16:47:33.517Z,5.63
2019-01-31T16:50:21.499Z,3.70
2019-01-31T16:53:10.095Z,2.80
2019-01-31T16:55:58.390Z,3.50
2019-01-31T16:58:46.248Z,2.83
2019-01-31T17:01:34.108Z,4.50
2019-01-31T17:04:21.724Z,2.73
2019-01-31T17:07:10.047Z,2.70
2019-01-31T17:09:58.312Z,4.10
2019-01-31T17:12:46.440Z,3.03
2019-01-31T17:15:34.174Z,2.73
2019-01-31T17:18:22.072Z,2.70
2019-01-31T17:21:10.164Z,5.27
2019-01-31T17:23:58.435Z,3.60
2019-01-31T17:26:46.607Z,2.93
2019-01-31T17:29:34.899Z,2.30
2019-01-31T17:32:23.257Z,2.30
2019-01-31T17:35:11.497Z,2.40
2019-01-31T17:37:59.923Z,4.27
2019-01-31T17:40:48.168Z,3.07
2019-01-31T17:43:36.358Z,2.70
2019-01-31T17:46:32.924Z,9.67
2019-01-31T17:49:21.214Z,5.80
2019-01-31T17:52:09.096Z,3.37
2019-01-31T17:54:57.050Z,3.40
2019-01-31T17:57:44.915Z,3.43
2019-01-31T18:00:56.649Z,3.47
2019-01-31T18:03:44.605Z,3.27
2019-01-31T18:06:33.262Z,3.03
2019-01-31T18:09:21.181Z,3.47
2019-01-31T18:12:09.070Z,3.53
2019-01-31T18:14:57.586Z,3.00
2019-01-31T18:17:46.119Z,2.43
2019-01-31T18:20:34.236Z,3.20
2019-01-31T18:23:22.376Z,2.80
2019-01-31T18:26:10.223Z,2.80
2019-01-31T18:28:58.352Z,2.87
2019-01-31T18:31:46.606Z,2.93
2019-01-31T18:34:34.395Z,2.60
2019-01-31T18:37:22.291Z,3.00
2019-01-31T18:40:14.166Z,2.20
2019-01-31T18:43:01.954Z,2.50
2019-01-31T18:45:53.426Z,3.30
2019-01-31T18:48:39.635Z,2.50
2019-01-31T18:51:27.605Z,3.03
2019-01-31T18:54:19.394Z,2.67
2019-01-31T18:57:07.664Z,4.10
2019-01-31T18:59:55.706Z,2.57
2019-01-31T19:02:43.620Z,2.10
2019-01-31T19:05:32.220Z,2.60
2019-01-31T19:08:19.993Z,2.33
2019-01-31T19:11:08.407Z,2.50
2019-01-31T19:13:56.559Z,2.70
2019-01-31T19:16:44.579Z,2.13
2019-01-31T19:19:32.289Z,2.30
2019-01-31T19:22:20.109Z,2.60
2019-01-31T19:25:08.318Z,2.30
2019-01-31T19:27:56.245Z,3.10
2019-01-31T19:30:44.488Z,2.40
2019-01-31T19:33:33.763Z,2.40
2019-01-31T19:36:21.687Z,2.30
2019-01-31T19:39:15.833Z,2.67
2019-01-31T19:42:03.961Z,2.67
2019-01-31T19:44:52.050Z,2.33
2019-01-31T19:47:39.759Z,2.13
2019-01-31T19:50:28.013Z,2.60
2019-01-31T19:53:15.757Z,2.30
2019-01-31T19:56:04.118Z,2.07
2019-01-31T19:58:52.207Z,2.40
2019-01-31T20:01:40.015Z,1.90
2019-01-31T20:04:27.552Z,2.40
2019-01-31T20:07:16.077Z,2.30
2019-01-31T20:10:05.180Z,2.47
2019-01-31T20:12:53.470Z,2.30
2019-01-31T20:15:41.654Z,2.53
2019-01-31T20:18:29.395Z,1.93
2019-01-31T20:21:17.168Z,2.20
2019-01-31T20:24:05.509Z,2.33
2019-01-31T20:26:53.979Z,2.03
2019-01-31T20:29:41.841Z,2.80
2019-01-31T20:32:29.873Z,2.63
2019-01-31T20:35:17.804Z,2.80
2019-01-31T20:38:06.293Z,2.17
2019-01-31T20:40:54.243Z,2.30
2019-01-31T20:43:42.661Z,2.33
2019-01-31T20:46:39.846Z,2.50
2019-01-31T20:49:19.957Z,2.63
2019-01-31T20:52:08.186Z,2.93
2019-01-31T20:54:56.114Z,2.43
2019-01-31T20:57:44.383Z,2.63
2019-01-31T21:00:51.531Z,2.50
2019-01-31T21:03:39.820Z,2.57
2019-01-31T21:06:27.416Z,3.00
2019-01-31T21:09:15.587Z,3.20
2019-01-31T21:12:03.845Z,3.70
2019-01-31T21:14:52.007Z,3.73
2019-01-31T21:17:40.255Z,3.67
2019-01-31T21:20:28.220Z,3.80
2019-01-31T21:23:16.513Z,3.23
2019-01-31T21:26:04.690Z,3.60
2019-01-31T21:28:52.870Z,3.07
2019-01-31T21:31:40.914Z,3.30
2019-01-31T21:34:28.970Z,3.77
2019-01-31T21:43:07.086Z,3.50
2019-01-31T21:45:55.109Z,3.50
2019-01-31T21:48:43.167Z,3.90
2019-01-31T21:51:31.355Z,3.73
2019-01-31T21:54:19.478Z,4.40
2019-01-31T21:57:07.607Z,4.47
2019-01-31T21:59:55.388Z,4.70
2019-01-31T22:02:43.538Z,4.60
2019-01-31T22:05:31.787Z,4.93
2019-01-31T22:08:19.559Z,4.87
2019-01-31T22:11:07.396Z,4.97
2019-01-31T22:13:55.099Z,5.17
2019-01-31T22:16:42.907Z,4.63
2019-01-31T22:19:31.019Z,5.33
2019-01-31T22:22:19.194Z,5.03
2019-01-31T22:25:08.989Z,5.40
2019-01-31T22:27:57.048Z,4.97
2019-01-31T22:30:45.119Z,5.33
2019-01-31T22:33:33.030Z,4.30
2019-01-31T22:36:22.896Z,4.87
2019-01-31T22:39:10.616Z,4.03
2019-01-31T22:41:58.356Z,3.43
2019-01-31T22:44:46.128Z,4.43
2019-01-31T22:47:34.225Z,4.30
2019-01-31T22:50:23.228Z,3.70
2019-01-31T22:53:11.112Z,4.10
2019-01-31T22:55:59.018Z,4.20
2019-01-31T22:58:47.144Z,4.57
2019-01-31T23:01:52.958Z,4.50
2019-01-31T23:04:41.156Z,4.60
2019-01-31T23:07:29.463Z,4.73
2019-01-31T23:10:17.531Z,5.20
2019-01-31T23:13:05.053Z,4.47
2019-01-31T23:15:52.609Z,4.67
2019-01-31T23:18:40.375Z,5.07
2019-01-31T23:21:28.286Z,4.57
2019-01-31T23:24:16.384Z,4.47
2019-01-31T23:27:03.888Z,4.23
2019-01-31T23:29:51.929Z,5.10
2019-01-31T23:32:40.103Z,4.80
2019-01-31T23:35:28.112Z,4.07
2019-01-31T23:38:16.200Z,4.70
2019-01-31T23:41:04.936Z,4.20
2019-01-31T23:43:53.318Z,4.13
2019-01-31T23:46:41.813Z,4.13
2019-01-31T23:49:29.848Z,4.80
2019-01-31T23:52:17.819Z,4.30
2019-01-31T23:55:08.598Z,4.37
2019-01-31T23:57:56.573Z,5.00
